This is the latest recevied weather packets stored in our database for station/object K6CEG. If no packets are shown the sender has not sent any weather packets the latest 10 day(s).
| Time | Temp. | Humidity | Pressure | Rain* | Wind** | Luminosity | Snow |
|---|---|---|---|---|---|---|---|
| 1788544407 | 25.56° C | 51% | 1016.3 hPa | 0 mm | - | 698 W/m² | - |
| 1788544107 | 25° C | 52% | 1016.2 hPa | 0 mm | - | 722 W/m² | - |
| 1788543802 | 26.11° C | 50% | 1016 hPa | 0 mm | - | 752 W/m² | - |
| 1788543499 | 26.11° C | 49% | 1016.2 hPa | 0 mm | - | 727 W/m² | - |
| 1788543194 | 25.56° C | 51% | 1016.2 hPa | 0 mm | - | 703 W/m² | - |
| 1788542890 | 25.56° C | 52% | 1016.2 hPa | 0 mm | - | 674 W/m² | - |
| 1788542588 | 26.11° C | 49% | 1016.1 hPa | 0 mm | - | 676 W/m² | - |
| 1788542284 | 25.56° C | 51% | 1016.2 hPa | 0 mm | - | 671 W/m² | - |
| 1788541979 | 25.56° C | 52% | 1016 hPa | 0 mm | - | 587 W/m² | - |
| 1788541675 | 24.44° C | 53% | 1016 hPa | 0 mm | - | 540 W/m² | - |
| 1788541371 | 23.89° C | 53% | 1015.9 hPa | 0 mm | - | 548 W/m² | - |
| 1788541070 | 24.44° C | 53% | 1015.7 hPa | 0 mm | - | 551 W/m² | - |
| 1788540770 | 24.44° C | 55% | 1015.7 hPa | 0 mm | - | 526 W/m² | - |
| 1788540464 | 25° C | 52% | 1015.7 hPa | 0 mm | - | 515 W/m² | - |
| 1788540160 | 24.44° C | 54% | 1015.6 hPa | 0 mm | - | 464 W/m² | - |
| 1788539856 | 23.89° C | 55% | 1015.9 hPa | 0 mm | - | 448 W/m² | - |
| 1788539551 | 23.89° C | 55% | 1015.8 hPa | 0 mm | - | 431 W/m² | - |
| 1788539250 | 23.33° C | 56% | 1015.8 hPa | 0 mm | - | 94 W/m² | - |
| 1788538945 | 23.33° C | 56% | 1016 hPa | 0 mm | - | 344 W/m² | - |
| 1788538641 | 22.78° C | 58% | 1015.9 hPa | 0 mm | - | 304 W/m² | - |
| 1788538335 | 22.78° C | 59% | 1015.7 hPa | 0 mm | - | 92 W/m² | - |
| 1788538031 | 23.33° C | 59% | 1015.9 hPa | 0 mm | - | 82 W/m² | - |
| 1788537727 | 22.78° C | 60% | 1015.7 hPa | 0 mm | - | 77 W/m² | - |
| 1788537427 | 22.22° C | 63% | 1015.6 hPa | 0 mm | - | 280 W/m² | - |
| 1788537126 | 22.78° C | 60% | 1015.6 hPa | 0 mm | - | 216 W/m² | - |
* Rain latest hour (hover to see other rain measurements)
** Current wind speed in m/s (hover to see current wind gust speed)